sensor_id;sensor_type;location;lat;lon;timestamp;temperature;humidity
75961;SHT30;64644;48.914;2.254;2023-04-15T00:01:58;11.92;73.30
75961;SHT30;64644;48.914;2.254;2023-04-15T00:04:24;11.93;73.33
75961;SHT30;64644;48.914;2.254;2023-04-15T00:06:50;11.95;72.97
75961;SHT30;64644;48.914;2.254;2023-04-15T00:09:17;11.93;73.23
75961;SHT30;64644;48.914;2.254;2023-04-15T00:11:43;11.93;73.38
75961;SHT30;64644;48.914;2.254;2023-04-15T00:14:09;11.93;73.34
75961;SHT30;64644;48.914;2.254;2023-04-15T00:16:34;11.96;73.41
75961;SHT30;64644;48.914;2.254;2023-04-15T00:19:00;11.96;73.39
75961;SHT30;64644;48.914;2.254;2023-04-15T00:21:25;12.00;73.37
75961;SHT30;64644;48.914;2.254;2023-04-15T00:23:51;12.02;73.39
75961;SHT30;64644;48.914;2.254;2023-04-15T00:26:18;12.00;73.24
75961;SHT30;64644;48.914;2.254;2023-04-15T00:28:43;12.03;73.14
75961;SHT30;64644;48.914;2.254;2023-04-15T00:31:09;12.03;73.06
75961;SHT30;64644;48.914;2.254;2023-04-15T00:33:35;11.97;73.00
75961;SHT30;64644;48.914;2.254;2023-04-15T00:36:01;11.96;73.28
75961;SHT30;64644;48.914;2.254;2023-04-15T00:38:28;11.97;73.35
75961;SHT30;64644;48.914;2.254;2023-04-15T00:40:53;11.97;73.32
75961;SHT30;64644;48.914;2.254;2023-04-15T00:43:19;12.00;73.37
75961;SHT30;64644;48.914;2.254;2023-04-15T00:45:45;12.02;73.36
75961;SHT30;64644;48.914;2.254;2023-04-15T00:48:11;12.04;73.35
75961;SHT30;64644;48.914;2.254;2023-04-15T00:50:37;12.07;73.44
75961;SHT30;64644;48.914;2.254;2023-04-15T00:53:02;12.07;73.74
75961;SHT30;64644;48.914;2.254;2023-04-15T00:55:28;12.09;73.61
75961;SHT30;64644;48.914;2.254;2023-04-15T00:57:53;12.09;73.71
75961;SHT30;64644;48.914;2.254;2023-04-15T01:00:19;12.09;73.78
75961;SHT30;64644;48.914;2.254;2023-04-15T01:02:45;12.09;73.90
75961;SHT30;64644;48.914;2.254;2023-04-15T01:05:10;12.12;73.94
75961;SHT30;64644;48.914;2.254;2023-04-15T01:07:35;12.09;74.05
75961;SHT30;64644;48.914;2.254;2023-04-15T01:10:02;12.10;74.15
75961;SHT30;64644;48.914;2.254;2023-04-15T01:12:28;12.12;74.10
75961;SHT30;64644;48.914;2.254;2023-04-15T01:14:54;12.09;74.24
75961;SHT30;64644;48.914;2.254;2023-04-15T01:17:20;12.07;74.29
75961;SHT30;64644;48.914;2.254;2023-04-15T01:19:45;12.06;74.37
75961;SHT30;64644;48.914;2.254;2023-04-15T01:22:11;12.07;74.49
75961;SHT30;64644;48.914;2.254;2023-04-15T01:24:36;12.07;74.56
75961;SHT30;64644;48.914;2.254;2023-04-15T01:27:03;12.03;74.51
75961;SHT30;64644;48.914;2.254;2023-04-15T01:29:31;12.03;74.48
75961;SHT30;64644;48.914;2.254;2023-04-15T01:31:56;12.02;74.63
75961;SHT30;64644;48.914;2.254;2023-04-15T01:34:22;12.04;74.66
75961;SHT30;64644;48.914;2.254;2023-04-15T01:36:47;12.02;74.77
75961;SHT30;64644;48.914;2.254;2023-04-15T01:39:13;12.04;74.75
75961;SHT30;64644;48.914;2.254;2023-04-15T01:41:38;12.02;74.64
75961;SHT30;64644;48.914;2.254;2023-04-15T01:44:05;12.00;74.73
75961;SHT30;64644;48.914;2.254;2023-04-15T01:46:31;11.95;74.61
75961;SHT30;64644;48.914;2.254;2023-04-15T01:48:56;11.92;75.02
75961;SHT30;64644;48.914;2.254;2023-04-15T01:51:21;11.92;75.14
75961;SHT30;64644;48.914;2.254;2023-04-15T01:53:47;11.93;75.12
75961;SHT30;64644;48.914;2.254;2023-04-15T01:56:12;11.97;75.06
75961;SHT30;64644;48.914;2.254;2023-04-15T01:58:38;11.90;75.18
75961;SHT30;64644;48.914;2.254;2023-04-15T02:01:04;11.92;75.34
75961;SHT30;64644;48.914;2.254;2023-04-15T02:03:30;11.90;75.26
75961;SHT30;64644;48.914;2.254;2023-04-15T02:05:55;11.86;75.25
75961;SHT30;64644;48.914;2.254;2023-04-15T02:08:21;11.85;75.44
75961;SHT30;64644;48.914;2.254;2023-04-15T02:10:46;11.86;75.50
75961;SHT30;64644;48.914;2.254;2023-04-15T02:13:12;11.87;75.46
75961;SHT30;64644;48.914;2.254;2023-04-15T02:15:38;11.89;75.40
75961;SHT30;64644;48.914;2.254;2023-04-15T02:18:04;11.90;75.41
75961;SHT30;64644;48.914;2.254;2023-04-15T02:20:30;11.93;75.48
75961;SHT30;64644;48.914;2.254;2023-04-15T02:22:56;11.93;75.63
75961;SHT30;64644;48.914;2.254;2023-04-15T02:25:21;11.95;75.66
75961;SHT30;64644;48.914;2.254;2023-04-15T02:27:47;11.93;75.61
75961;SHT30;64644;48.914;2.254;2023-04-15T02:30:12;11.95;75.70
75961;SHT30;64644;48.914;2.254;2023-04-15T02:32:38;11.93;75.61
75961;SHT30;64644;48.914;2.254;2023-04-15T02:35:05;11.92;75.65
75961;SHT30;64644;48.914;2.254;2023-04-15T02:37:31;11.95;75.67
75961;SHT30;64644;48.914;2.254;2023-04-15T02:39:56;11.96;75.64
75961;SHT30;64644;48.914;2.254;2023-04-15T02:42:22;11.90;75.69
75961;SHT30;64644;48.914;2.254;2023-04-15T02:44:47;11.93;75.67
75961;SHT30;64644;48.914;2.254;2023-04-15T02:47:12;11.90;75.74
75961;SHT30;64644;48.914;2.254;2023-04-15T02:49:39;11.87;75.86
75961;SHT30;64644;48.914;2.254;2023-04-15T02:52:04;11.90;75.88
75961;SHT30;64644;48.914;2.254;2023-04-15T02:54:30;11.89;75.61
75961;SHT30;64644;48.914;2.254;2023-04-15T02:56:58;11.90;75.69
75961;SHT30;64644;48.914;2.254;2023-04-15T02:59:23;11.93;75.77
75961;SHT30;64644;48.914;2.254;2023-04-15T03:01:49;11.95;75.67
75961;SHT30;64644;48.914;2.254;2023-04-15T03:04:14;11.93;75.71
75961;SHT30;64644;48.914;2.254;2023-04-15T03:06:40;11.95;75.76
75961;SHT30;64644;48.914;2.254;2023-04-15T03:09:05;11.96;75.86
75961;SHT30;64644;48.914;2.254;2023-04-15T03:11:31;11.95;75.70
75961;SHT30;64644;48.914;2.254;2023-04-15T03:13:57;11.95;75.30
75961;SHT30;64644;48.914;2.254;2023-04-15T03:16:23;11.93;75.43
75961;SHT30;64644;48.914;2.254;2023-04-15T03:18:48;11.92;75.22
75961;SHT30;64644;48.914;2.254;2023-04-15T03:21:13;11.89;75.23
75961;SHT30;64644;48.914;2.254;2023-04-15T03:23:39;11.86;75.00
75961;SHT30;64644;48.914;2.254;2023-04-15T03:26:04;11.82;75.47
75961;SHT30;64644;48.914;2.254;2023-04-15T03:28:30;11.82;75.20
75961;SHT30;64644;48.914;2.254;2023-04-15T03:30:57;11.78;74.87
75961;SHT30;64644;48.914;2.254;2023-04-15T03:33:22;11.78;74.82
75961;SHT30;64644;48.914;2.254;2023-04-15T03:35:49;11.71;74.54
75961;SHT30;64644;48.914;2.254;2023-04-15T03:38:15;11.67;74.80
75961;SHT30;64644;48.914;2.254;2023-04-15T03:40:40;11.62;74.96
75961;SHT30;64644;48.914;2.254;2023-04-15T03:43:06;11.58;74.89
75961;SHT30;64644;48.914;2.254;2023-04-15T03:45:32;11.59;74.82
75961;SHT30;64644;48.914;2.254;2023-04-15T03:47:57;11.55;74.81
75961;SHT30;64644;48.914;2.254;2023-04-15T03:50:23;11.51;74.42
75961;SHT30;64644;48.914;2.254;2023-04-15T03:52:48;11.50;74.55
75961;SHT30;64644;48.914;2.254;2023-04-15T03:55:13;11.45;74.73
75961;SHT30;64644;48.914;2.254;2023-04-15T03:57:39;11.45;74.44
75961;SHT30;64644;48.914;2.254;2023-04-15T04:00:06;11.42;74.17
75961;SHT30;64644;48.914;2.254;2023-04-15T04:02:33;11.38;74.78
75961;SHT30;64644;48.914;2.254;2023-04-15T04:04:58;11.34;74.95
75961;SHT30;64644;48.914;2.254;2023-04-15T04:07:24;11.35;75.17
75961;SHT30;64644;48.914;2.254;2023-04-15T04:09:49;11.33;74.80
75961;SHT30;64644;48.914;2.254;2023-04-15T04:12:15;11.33;75.05
75961;SHT30;64644;48.914;2.254;2023-04-15T04:14:40;11.31;75.31
75961;SHT30;64644;48.914;2.254;2023-04-15T04:17:05;11.31;74.91
75961;SHT30;64644;48.914;2.254;2023-04-15T04:19:31;11.33;75.17
75961;SHT30;64644;48.914;2.254;2023-04-15T04:21:56;11.30;75.00
75961;SHT30;64644;48.914;2.254;2023-04-15T04:24:22;11.31;74.98
75961;SHT30;64644;48.914;2.254;2023-04-15T04:26:47;11.31;75.04
75961;SHT30;64644;48.914;2.254;2023-04-15T04:29:12;11.27;75.04
75961;SHT30;64644;48.914;2.254;2023-04-15T04:31:38;11.26;74.87
75961;SHT30;64644;48.914;2.254;2023-04-15T04:34:03;11.23;74.42
75961;SHT30;64644;48.914;2.254;2023-04-15T04:36:28;11.17;74.85
75961;SHT30;64644;48.914;2.254;2023-04-15T04:38:54;11.12;74.87
75961;SHT30;64644;48.914;2.254;2023-04-15T04:41:20;11.10;74.73
75961;SHT30;64644;48.914;2.254;2023-04-15T04:43:45;11.09;75.11
75961;SHT30;64644;48.914;2.254;2023-04-15T04:46:12;11.05;74.50
75961;SHT30;64644;48.914;2.254;2023-04-15T04:48:37;11.06;75.27
75961;SHT30;64644;48.914;2.254;2023-04-15T04:51:03;11.06;75.28
75961;SHT30;64644;48.914;2.254;2023-04-15T04:53:29;11.03;75.10
75961;SHT30;64644;48.914;2.254;2023-04-15T04:55:54;11.06;75.07
75961;SHT30;64644;48.914;2.254;2023-04-15T04:58:19;11.06;75.33
75961;SHT30;64644;48.914;2.254;2023-04-15T05:00:45;11.06;74.75
75961;SHT30;64644;48.914;2.254;2023-04-15T05:03:11;11.03;74.89
75961;SHT30;64644;48.914;2.254;2023-04-15T05:05:36;11.03;75.25
75961;SHT30;64644;48.914;2.254;2023-04-15T05:08:04;11.07;74.82
75961;SHT30;64644;48.914;2.254;2023-04-15T05:10:30;11.06;74.58
75961;SHT30;64644;48.914;2.254;2023-04-15T05:12:55;11.05;74.79
75961;SHT30;64644;48.914;2.254;2023-04-15T05:15:21;11.02;75.04
75961;SHT30;64644;48.914;2.254;2023-04-15T05:17:46;11.07;75.33
75961;SHT30;64644;48.914;2.254;2023-04-15T05:20:12;11.09;75.35
75961;SHT30;64644;48.914;2.254;2023-04-15T05:22:37;11.12;75.19
75961;SHT30;64644;48.914;2.254;2023-04-15T05:25:03;11.10;74.71
75961;SHT30;64644;48.914;2.254;2023-04-15T05:27:30;11.12;75.05
75961;SHT30;64644;48.914;2.254;2023-04-15T05:29:55;11.12;75.12
75961;SHT30;64644;48.914;2.254;2023-04-15T05:32:20;11.14;75.05
75961;SHT30;64644;48.914;2.254;2023-04-15T05:34:46;11.17;75.05
75961;SHT30;64644;48.914;2.254;2023-04-15T05:37:11;11.17;75.22
75961;SHT30;64644;48.914;2.254;2023-04-15T05:39:37;11.16;75.01
75961;SHT30;64644;48.914;2.254;2023-04-15T05:42:02;11.19;74.85
75961;SHT30;64644;48.914;2.254;2023-04-15T05:44:30;11.19;74.98
75961;SHT30;64644;48.914;2.254;2023-04-15T05:46:55;11.20;75.02
75961;SHT30;64644;48.914;2.254;2023-04-15T05:49:21;11.17;75.23
75961;SHT30;64644;48.914;2.254;2023-04-15T05:51:46;11.19;75.30
75961;SHT30;64644;48.914;2.254;2023-04-15T05:54:12;11.23;75.16
75961;SHT30;64644;48.914;2.254;2023-04-15T05:56:37;11.19;75.11
75961;SHT30;64644;48.914;2.254;2023-04-15T05:59:02;11.22;75.24
75961;SHT30;64644;48.914;2.254;2023-04-15T06:01:28;11.23;74.85
75961;SHT30;64644;48.914;2.254;2023-04-15T06:03:53;11.22;75.10
75961;SHT30;64644;48.914;2.254;2023-04-15T06:06:18;11.20;75.15
75961;SHT30;64644;48.914;2.254;2023-04-15T06:08:45;11.23;75.13
75961;SHT30;64644;48.914;2.254;2023-04-15T06:11:10;11.22;75.36
75961;SHT30;64644;48.914;2.254;2023-04-15T06:13:35;11.27;75.37
75961;SHT30;64644;48.914;2.254;2023-04-15T06:16:01;11.27;75.32
75961;SHT30;64644;48.914;2.254;2023-04-15T06:18:26;11.31;75.38
75961;SHT30;64644;48.914;2.254;2023-04-15T06:20:51;11.34;75.48
75961;SHT30;64644;48.914;2.254;2023-04-15T06:23:17;11.38;75.52
75961;SHT30;64644;48.914;2.254;2023-04-15T06:25:42;11.41;75.49
75961;SHT30;64644;48.914;2.254;2023-04-15T06:28:07;11.45;75.52
75961;SHT30;64644;48.914;2.254;2023-04-15T06:30:33;11.48;75.33
75961;SHT30;64644;48.914;2.254;2023-04-15T06:33:00;11.51;75.20
75961;SHT30;64644;48.914;2.254;2023-04-15T06:35:25;11.50;75.30
75961;SHT30;64644;48.914;2.254;2023-04-15T06:37:51;11.52;74.90
75961;SHT30;64644;48.914;2.254;2023-04-15T06:40:16;11.54;75.14
75961;SHT30;64644;48.914;2.254;2023-04-15T06:42:42;11.57;75.28
75961;SHT30;64644;48.914;2.254;2023-04-15T06:45:08;11.62;75.24
75961;SHT30;64644;48.914;2.254;2023-04-15T06:47:33;11.61;75.28
75961;SHT30;64644;48.914;2.254;2023-04-15T06:49:59;11.61;74.95
75961;SHT30;64644;48.914;2.254;2023-04-15T06:52:24;11.61;75.16
75961;SHT30;64644;48.914;2.254;2023-04-15T06:54:50;11.61;74.90
75961;SHT30;64644;48.914;2.254;2023-04-15T06:57:15;11.62;74.96
75961;SHT30;64644;48.914;2.254;2023-04-15T06:59:41;11.62;75.00
75961;SHT30;64644;48.914;2.254;2023-04-15T07:02:11;11.59;75.46
75961;SHT30;64644;48.914;2.254;2023-04-15T07:04:36;11.58;75.27
75961;SHT30;64644;48.914;2.254;2023-04-15T07:07:02;11.59;75.46
75961;SHT30;64644;48.914;2.254;2023-04-15T07:09:27;11.59;75.60
75961;SHT30;64644;48.914;2.254;2023-04-15T07:11:52;11.64;75.09
75961;SHT30;64644;48.914;2.254;2023-04-15T07:14:18;11.64;75.34
75961;SHT30;64644;48.914;2.254;2023-04-15T07:16:43;11.64;75.00
75961;SHT30;64644;48.914;2.254;2023-04-15T07:19:08;11.62;75.41
75961;SHT30;64644;48.914;2.254;2023-04-15T07:21:34;11.64;75.05
75961;SHT30;64644;48.914;2.254;2023-04-15T07:23:59;11.65;75.15
75961;SHT30;64644;48.914;2.254;2023-04-15T07:26:24;11.61;75.16
75961;SHT30;64644;48.914;2.254;2023-04-15T07:28:50;11.59;75.27
75961;SHT30;64644;48.914;2.254;2023-04-15T07:31:15;11.59;75.29
75961;SHT30;64644;48.914;2.254;2023-04-15T07:33:41;11.61;75.52
75961;SHT30;64644;48.914;2.254;2023-04-15T07:36:07;11.59;75.71
75961;SHT30;64644;48.914;2.254;2023-04-15T07:38:32;11.61;75.72
75961;SHT30;64644;48.914;2.254;2023-04-15T07:40:58;11.61;75.50
75961;SHT30;64644;48.914;2.254;2023-04-15T07:43:23;11.62;75.59
75961;SHT30;64644;48.914;2.254;2023-04-15T07:45:49;11.61;75.67
75961;SHT30;64644;48.914;2.254;2023-04-15T07:48:14;11.61;75.57
75961;SHT30;64644;48.914;2.254;2023-04-15T07:50:40;11.58;75.48
75961;SHT30;64644;48.914;2.254;2023-04-15T07:53:05;11.57;75.43
75961;SHT30;64644;48.914;2.254;2023-04-15T07:55:31;11.57;75.70
75961;SHT30;64644;48.914;2.254;2023-04-15T07:57:57;11.58;75.93
75961;SHT30;64644;48.914;2.254;2023-04-15T08:00:22;11.61;75.93
75961;SHT30;64644;48.914;2.254;2023-04-15T08:02:48;11.62;76.06
75961;SHT30;64644;48.914;2.254;2023-04-15T08:05:13;11.64;76.04
75961;SHT30;64644;48.914;2.254;2023-04-15T08:07:39;11.68;76.03
75961;SHT30;64644;48.914;2.254;2023-04-15T08:10:05;11.74;76.08
75961;SHT30;64644;48.914;2.254;2023-04-15T08:12:31;11.74;75.85
75961;SHT30;64644;48.914;2.254;2023-04-15T08:14:57;11.78;75.55
75961;SHT30;64644;48.914;2.254;2023-04-15T08:17:23;11.82;74.85
75961;SHT30;64644;48.914;2.254;2023-04-15T08:19:48;11.83;75.03
75961;SHT30;64644;48.914;2.254;2023-04-15T08:22:14;11.83;75.27
75961;SHT30;64644;48.914;2.254;2023-04-15T08:24:40;11.87;75.31
75961;SHT30;64644;48.914;2.254;2023-04-15T08:27:05;11.89;74.94
75961;SHT30;64644;48.914;2.254;2023-04-15T08:29:32;11.83;74.98
75961;SHT30;64644;48.914;2.254;2023-04-15T08:31:58;11.92;75.18
75961;SHT30;64644;48.914;2.254;2023-04-15T08:34:24;11.97;75.12
75961;SHT30;64644;48.914;2.254;2023-04-15T08:36:50;12.04;74.93
75961;SHT30;64644;48.914;2.254;2023-04-15T08:39:15;12.12;74.93
75961;SHT30;64644;48.914;2.254;2023-04-15T08:41:57;12.23;74.91
75961;SHT30;64644;48.914;2.254;2023-04-15T08:44:25;12.30;74.64
75961;SHT30;64644;48.914;2.254;2023-04-15T08:46:55;12.40;74.71
75961;SHT30;64644;48.914;2.254;2023-04-15T08:49:23;12.51;74.55
75961;SHT30;64644;48.914;2.254;2023-04-15T08:51:53;12.59;74.39
75961;SHT30;64644;48.914;2.254;2023-04-15T08:54:21;12.68;74.06
75961;SHT30;64644;48.914;2.254;2023-04-15T08:56:47;12.71;73.62
75961;SHT30;64644;48.914;2.254;2023-04-15T08:59:13;12.76;73.62
75961;SHT30;64644;48.914;2.254;2023-04-15T09:01:39;12.79;73.51
75961;SHT30;64644;48.914;2.254;2023-04-15T09:04:05;12.82;73.14
75961;SHT30;64644;48.914;2.254;2023-04-15T09:06:32;12.79;72.79
75961;SHT30;64644;48.914;2.254;2023-04-15T09:08:58;12.75;72.83
75961;SHT30;64644;48.914;2.254;2023-04-15T09:11:23;12.72;72.80
75961;SHT30;64644;48.914;2.254;2023-04-15T09:13:49;12.65;72.80
75961;SHT30;64644;48.914;2.254;2023-04-15T09:16:14;12.59;72.96
75961;SHT30;64644;48.914;2.254;2023-04-15T09:18:40;12.54;73.05
75961;SHT30;64644;48.914;2.254;2023-04-15T09:21:06;12.47;73.07
75961;SHT30;64644;48.914;2.254;2023-04-15T09:23:33;12.41;73.13
75961;SHT30;64644;48.914;2.254;2023-04-15T09:26:00;12.42;73.03
75961;SHT30;64644;48.914;2.254;2023-04-15T09:28:25;12.40;72.83
75961;SHT30;64644;48.914;2.254;2023-04-15T09:30:54;12.38;72.89
75961;SHT30;64644;48.914;2.254;2023-04-15T09:33:20;12.37;73.19
75961;SHT30;64644;48.914;2.254;2023-04-15T09:35:56;12.36;73.27
75961;SHT30;64644;48.914;2.254;2023-04-15T09:38:22;12.34;73.32
75961;SHT30;64644;48.914;2.254;2023-04-15T09:40:47;12.36;73.34
75961;SHT30;64644;48.914;2.254;2023-04-15T09:43:13;12.41;73.36
75961;SHT30;64644;48.914;2.254;2023-04-15T09:45:47;12.47;73.22
75961;SHT30;64644;48.914;2.254;2023-04-15T09:48:16;12.52;73.10
75961;SHT30;64644;48.914;2.254;2023-04-15T09:50:42;12.57;73.14
75961;SHT30;64644;48.914;2.254;2023-04-15T09:53:09;12.66;72.95
75961;SHT30;64644;48.914;2.254;2023-04-15T09:55:36;12.74;72.91
75961;SHT30;64644;48.914;2.254;2023-04-15T09:58:01;12.79;72.90
75961;SHT30;64644;48.914;2.254;2023-04-15T10:00:28;12.89;72.93
75961;SHT30;64644;48.914;2.254;2023-04-15T10:02:54;13.00;72.61
75961;SHT30;64644;48.914;2.254;2023-04-15T10:05:20;13.14;72.61
75961;SHT30;64644;48.914;2.254;2023-04-15T10:07:46;13.24;72.38
75961;SHT30;64644;48.914;2.254;2023-04-15T10:10:13;13.33;72.01
75961;SHT30;64644;48.914;2.254;2023-04-15T10:12:40;13.38;71.71
75961;SHT30;64644;48.914;2.254;2023-04-15T10:15:13;13.38;71.30
75961;SHT30;64644;48.914;2.254;2023-04-15T10:17:43;13.38;71.43
75961;SHT30;64644;48.914;2.254;2023-04-15T10:20:09;13.45;71.66
75961;SHT30;64644;48.914;2.254;2023-04-15T10:22:36;13.57;71.75
75961;SHT30;64644;48.914;2.254;2023-04-15T10:25:02;13.62;71.50
75961;SHT30;64644;48.914;2.254;2023-04-15T10:27:28;13.69;71.51
75961;SHT30;64644;48.914;2.254;2023-04-15T10:29:55;13.68;71.43
75961;SHT30;64644;48.914;2.254;2023-04-15T10:32:23;13.68;71.08
75961;SHT30;64644;48.914;2.254;2023-04-15T10:34:50;13.65;70.64
75961;SHT30;64644;48.914;2.254;2023-04-15T10:37:21;13.62;70.66
75961;SHT30;64644;48.914;2.254;2023-04-15T10:39:47;13.64;70.95
75961;SHT30;64644;48.914;2.254;2023-04-15T10:42:15;13.64;70.82
75961;SHT30;64644;48.914;2.254;2023-04-15T10:44:47;13.69;70.95
75961;SHT30;64644;48.914;2.254;2023-04-15T10:47:14;13.68;70.72
75961;SHT30;64644;48.914;2.254;2023-04-15T10:49:44;13.59;70.85
75961;SHT30;64644;48.914;2.254;2023-04-15T10:52:10;13.54;70.82
75961;SHT30;64644;48.914;2.254;2023-04-15T10:54:36;13.48;70.87
75961;SHT30;64644;48.914;2.254;2023-04-15T10:59:35;13.54;70.72
75961;SHT30;64644;48.914;2.254;2023-04-15T11:02:05;13.53;70.60
75961;SHT30;64644;48.914;2.254;2023-04-15T11:04:57;13.57;70.51
75961;SHT30;64644;48.914;2.254;2023-04-15T11:13:00;13.53;70.69
75961;SHT30;64644;48.914;2.254;2023-04-15T11:15:28;13.59;70.90
75961;SHT30;64644;48.914;2.254;2023-04-15T11:17:58;13.65;70.58
75961;SHT30;64644;48.914;2.254;2023-04-15T11:20:24;13.72;70.53
75961;SHT30;64644;48.914;2.254;2023-04-15T11:22:52;13.72;70.06
75961;SHT30;64644;48.914;2.254;2023-04-15T11:25:23;13.71;70.29
75961;SHT30;64644;48.914;2.254;2023-04-15T11:27:49;13.69;70.33
75961;SHT30;64644;48.914;2.254;2023-04-15T11:30:18;13.68;70.07
75961;SHT30;64644;48.914;2.254;2023-04-15T11:32:45;13.78;70.22
75961;SHT30;64644;48.914;2.254;2023-04-15T11:35:11;13.87;70.21
75961;SHT30;64644;48.914;2.254;2023-04-15T11:37:36;14.03;69.67
75961;SHT30;64644;48.914;2.254;2023-04-15T11:40:02;14.24;69.63
75961;SHT30;64644;48.914;2.254;2023-04-15T11:42:27;14.37;69.60
75961;SHT30;64644;48.914;2.254;2023-04-15T11:45:06;14.49;69.50
75961;SHT30;64644;48.914;2.254;2023-04-15T11:47:31;14.61;69.25
75961;SHT30;64644;48.914;2.254;2023-04-15T11:49:57;14.64;68.46
75961;SHT30;64644;48.914;2.254;2023-04-15T11:52:37;14.71;68.88
75961;SHT30;64644;48.914;2.254;2023-04-15T11:55:06;14.69;68.62
75961;SHT30;64644;48.914;2.254;2023-04-15T11:57:34;14.64;68.61
75961;SHT30;64644;48.914;2.254;2023-04-15T11:59:59;14.64;68.43
75961;SHT30;64644;48.914;2.254;2023-04-15T12:02:30;14.68;67.69
75961;SHT30;64644;48.914;2.254;2023-04-15T12:05:07;14.67;67.57
75961;SHT30;64644;48.914;2.254;2023-04-15T12:07:33;14.69;67.56
75961;SHT30;64644;48.914;2.254;2023-04-15T12:10:18;14.68;67.71
75961;SHT30;64644;48.914;2.254;2023-04-15T12:12:49;14.64;67.63
75961;SHT30;64644;48.914;2.254;2023-04-15T12:15:14;14.61;67.45
75961;SHT30;64644;48.914;2.254;2023-04-15T12:17:39;14.62;67.77
75961;SHT30;64644;48.914;2.254;2023-04-15T12:20:06;14.62;67.43
75961;SHT30;64644;48.914;2.254;2023-04-15T12:22:36;14.64;67.51
75961;SHT30;64644;48.914;2.254;2023-04-15T12:25:02;14.64;67.74
75961;SHT30;64644;48.914;2.254;2023-04-15T12:27:27;14.60;67.06
75961;SHT30;64644;48.914;2.254;2023-04-15T12:30:03;14.60;67.19
75961;SHT30;64644;48.914;2.254;2023-04-15T12:32:29;14.64;67.14
75961;SHT30;64644;48.914;2.254;2023-04-15T12:34:54;14.65;67.17
75961;SHT30;64644;48.914;2.254;2023-04-15T12:37:20;14.75;66.97
75961;SHT30;64644;48.914;2.254;2023-04-15T12:39:47;14.90;66.79
75961;SHT30;64644;48.914;2.254;2023-04-15T12:42:16;15.08;66.50
75961;SHT30;64644;48.914;2.254;2023-04-15T12:44:42;15.16;66.14
75961;SHT30;64644;48.914;2.254;2023-04-15T12:47:08;15.14;65.94
75961;SHT30;64644;48.914;2.254;2023-04-15T12:49:34;15.11;65.68
75961;SHT30;64644;48.914;2.254;2023-04-15T12:52:00;15.07;65.91
75961;SHT30;64644;48.914;2.254;2023-04-15T12:54:27;15.00;66.10
75961;SHT30;64644;48.914;2.254;2023-04-15T12:56:53;14.90;65.80
75961;SHT30;64644;48.914;2.254;2023-04-15T12:59:20;14.87;65.58
75961;SHT30;64644;48.914;2.254;2023-04-15T13:01:47;14.83;65.53
75961;SHT30;64644;48.914;2.254;2023-04-15T13:04:12;14.78;66.35
75961;SHT30;64644;48.914;2.254;2023-04-15T13:06:38;14.68;65.91
75961;SHT30;64644;48.914;2.254;2023-04-15T13:09:04;14.62;66.30
75961;SHT30;64644;48.914;2.254;2023-04-15T13:11:30;14.55;66.32
75961;SHT30;64644;48.914;2.254;2023-04-15T13:13:56;14.52;66.55
75961;SHT30;64644;48.914;2.254;2023-04-15T13:16:22;14.46;66.58
75961;SHT30;64644;48.914;2.254;2023-04-15T13:18:48;14.42;66.64
75961;SHT30;64644;48.914;2.254;2023-04-15T13:21:14;14.41;66.77
75961;SHT30;64644;48.914;2.254;2023-04-15T13:23:40;14.41;66.40
75961;SHT30;64644;48.914;2.254;2023-04-15T13:26:06;14.44;66.64
75961;SHT30;64644;48.914;2.254;2023-04-15T13:28:32;14.40;66.20
75961;SHT30;64644;48.914;2.254;2023-04-15T13:30:57;14.38;65.96
75961;SHT30;64644;48.914;2.254;2023-04-15T13:33:24;14.35;65.89
75961;SHT30;64644;48.914;2.254;2023-04-15T13:35:49;14.38;66.21
75961;SHT30;64644;48.914;2.254;2023-04-15T13:38:15;14.40;66.39
75961;SHT30;64644;48.914;2.254;2023-04-15T13:40:40;14.41;66.51
75961;SHT30;64644;48.914;2.254;2023-04-15T13:43:06;14.45;66.29
75961;SHT30;64644;48.914;2.254;2023-04-15T13:45:31;14.49;65.89
75961;SHT30;64644;48.914;2.254;2023-04-15T13:47:57;14.58;66.08
75961;SHT30;64644;48.914;2.254;2023-04-15T13:50:23;14.62;65.87
75961;SHT30;64644;48.914;2.254;2023-04-15T13:52:48;14.69;65.78
75961;SHT30;64644;48.914;2.254;2023-04-15T13:55:13;14.71;65.76
75961;SHT30;64644;48.914;2.254;2023-04-15T13:57:39;14.76;65.61
75961;SHT30;64644;48.914;2.254;2023-04-15T14:00:05;14.78;65.42
75961;SHT30;64644;48.914;2.254;2023-04-15T14:02:31;14.86;65.40
75961;SHT30;64644;48.914;2.254;2023-04-15T14:04:56;14.97;64.76
75961;SHT30;64644;48.914;2.254;2023-04-15T14:07:21;15.13;64.67
75961;SHT30;64644;48.914;2.254;2023-04-15T14:09:47;15.31;64.31
75961;SHT30;64644;48.914;2.254;2023-04-15T14:12:12;15.37;63.97
75961;SHT30;64644;48.914;2.254;2023-04-15T14:14:38;15.41;64.39
75961;SHT30;64644;48.914;2.254;2023-04-15T14:17:05;15.47;63.79
75961;SHT30;64644;48.914;2.254;2023-04-15T14:19:30;15.52;64.21
75961;SHT30;64644;48.914;2.254;2023-04-15T14:21:56;15.55;63.76
75961;SHT30;64644;48.914;2.254;2023-04-15T14:24:21;15.58;63.54
75961;SHT30;64644;48.914;2.254;2023-04-15T14:26:46;15.62;64.16
75961;SHT30;64644;48.914;2.254;2023-04-15T14:29:12;15.63;64.01
75961;SHT30;64644;48.914;2.254;2023-04-15T14:31:37;15.61;63.88
75961;SHT30;64644;48.914;2.254;2023-04-15T14:34:04;15.66;63.81
75961;SHT30;64644;48.914;2.254;2023-04-15T14:36:30;15.66;63.74
75961;SHT30;64644;48.914;2.254;2023-04-15T14:38:56;15.68;63.63
75961;SHT30;64644;48.914;2.254;2023-04-15T14:41:22;15.68;63.49
75961;SHT30;64644;48.914;2.254;2023-04-15T14:43:48;15.76;64.35
75961;SHT30;64644;48.914;2.254;2023-04-15T14:46:13;15.76;64.21
75961;SHT30;64644;48.914;2.254;2023-04-15T14:48:39;15.76;63.81
75961;SHT30;64644;48.914;2.254;2023-04-15T14:51:05;15.72;63.99
75961;SHT30;64644;48.914;2.254;2023-04-15T14:53:30;15.76;63.65
75961;SHT30;64644;48.914;2.254;2023-04-15T14:55:55;15.89;63.03
75961;SHT30;64644;48.914;2.254;2023-04-15T14:58:21;16.00;63.48
75961;SHT30;64644;48.914;2.254;2023-04-15T15:00:46;16.10;63.53
75961;SHT30;64644;48.914;2.254;2023-04-15T15:03:12;16.27;63.36
75961;SHT30;64644;48.914;2.254;2023-04-15T15:05:42;16.38;62.75
75961;SHT30;64644;48.914;2.254;2023-04-15T15:08:08;16.51;62.93
75961;SHT30;64644;48.914;2.254;2023-04-15T15:10:35;16.64;61.79
75961;SHT30;64644;48.914;2.254;2023-04-15T15:13:05;16.72;61.97
75961;SHT30;64644;48.914;2.254;2023-04-15T15:15:31;16.77;62.21
75961;SHT30;64644;48.914;2.254;2023-04-15T15:17:56;16.82;62.16
75961;SHT30;64644;48.914;2.254;2023-04-15T15:20:22;16.89;62.35
75961;SHT30;64644;48.914;2.254;2023-04-15T15:22:48;16.90;62.34
75961;SHT30;64644;48.914;2.254;2023-04-15T15:25:13;16.86;61.31
75961;SHT30;64644;48.914;2.254;2023-04-15T15:27:38;16.84;61.14
75961;SHT30;64644;48.914;2.254;2023-04-15T15:30:04;16.77;61.44
75961;SHT30;64644;48.914;2.254;2023-04-15T15:32:30;16.72;62.30